Time;durP1;ratioP1;P1;durP2;ratioP2;P2;SDS_P1;SDS_P2;PMS_P1;PMS_P2;Temp;Humidity;BMP_temperature;BMP_pressure;BME280_temperature;BME280_humidity;BME280_pressure;Samples;Min_cycle;Max_cycle;Signal;HPM_P1;HPM_P2
2021/06/14 00:00:09;;;;;;;8.05;3.33;;;14.00;78.70;;;;;;6224761;28;20486;-77
2021/06/14 00:03:11;;;;;;;5.03;2.63;;;14.00;79.00;;;;;;6224803;28;20048;-78
2021/06/14 00:06:13;;;;;;;4.20;2.95;;;13.90;78.40;;;;;;6225481;28;20119;-78
2021/06/14 00:09:19;;;;;;;8.73;2.95;;;13.90;78.50;;;;;;6224187;28;20054;-78
2021/06/14 00:12:22;;;;;;;17.83;3.80;;;13.90;78.90;;;;;;6224398;28;20526;-77
2021/06/14 00:15:25;;;;;;;4.38;3.10;;;13.90;79.00;;;;;;6224368;28;20132;-78
2021/06/14 00:18:28;;;;;;;4.53;3.13;;;13.80;79.60;;;;;;6226209;28;20054;-78
2021/06/14 00:21:30;;;;;;;5.07;3.47;;;13.80;79.50;;;;;;6233113;28;20069;-78
2021/06/14 00:24:32;;;;;;;3.22;2.83;;;13.80;79.60;;;;;;6232514;28;20052;-77
2021/06/14 00:27:35;;;;;;;5.68;3.47;;;13.80;79.80;;;;;;6232354;28;20061;-77
2021/06/14 00:30:39;;;;;;;6.65;3.50;;;13.80;80.20;;;;;;6232900;28;20053;-77
2021/06/14 00:33:41;;;;;;;4.90;3.85;;;13.70;79.70;;;;;;6231972;28;20038;-76
2021/06/14 00:36:43;;;;;;;3.70;3.40;;;13.70;79.50;;;;;;6231818;28;20507;-77
2021/06/14 00:39:45;;;;;;;5.47;3.20;;;13.80;80.10;;;;;;6231888;28;20132;-76
2021/06/14 00:42:49;;;;;;;8.65;3.20;;;13.70;80.00;;;;;;6233057;28;20596;-77
2021/06/14 00:45:53;;;;;;;5.15;4.13;;;13.70;80.50;;;;;;6233448;28;20054;-78
2021/06/14 00:48:54;;;;;;;6.53;3.85;;;13.60;81.30;;;;;;6233624;28;20061;-77
2021/06/14 00:51:56;;;;;;;4.35;3.70;;;13.60;81.50;;;;;;6234292;28;20042;-76
2021/06/14 00:54:58;;;;;;;4.47;3.35;;;13.50;82.00;;;;;;6235355;28;20121;-78
2021/06/14 00:58:01;;;;;;;7.18;3.42;;;13.50;81.10;;;;;;6235420;28;20096;-78
2021/06/14 01:01:04;;;;;;;3.40;2.95;;;13.50;81.00;;;;;;6233648;28;20042;-79
2021/06/14 01:04:06;;;;;;;4.28;3.13;;;13.50;80.60;;;;;;6234324;28;20096;-76
2021/06/14 01:07:08;;;;;;;3.65;3.35;;;13.50;80.80;;;;;;6234575;28;20102;-79
2021/06/14 01:10:12;;;;;;;5.97;3.40;;;13.50;80.30;;;;;;6234510;28;20135;-79
2021/06/14 01:13:35;;;;;;;3.63;2.85;;;13.60;81.00;;;;;;6234517;28;20069;-79
2021/06/14 01:16:44;;;;;;;5.93;3.10;;;13.60;81.80;;;;;;6233881;28;20095;-78
2021/06/14 01:20:14;;;;;;;7.40;3.45;;;13.60;81.60;;;;;;6234408;28;20053;-79
2021/06/14 01:23:30;;;;;;;5.22;3.15;;;13.60;80.90;;;;;;6234022;28;20046;-79
2021/06/14 01:26:40;;;;;;;4.15;3.35;;;13.50;81.70;;;;;;6234444;28;20089;-78
2021/06/14 01:29:43;;;;;;;6.22;3.30;;;13.50;81.90;;;;;;6233682;28;20062;-78
2021/06/14 01:32:46;;;;;;;6.35;3.17;;;13.40;82.00;;;;;;6230003;28;20787;-78
2021/06/14 01:35:51;;;;;;;4.55;2.95;;;13.40;82.10;;;;;;6230248;28;20092;-79
2021/06/14 01:38:55;;;;;;;5.88;3.17;;;13.30;81.70;;;;;;6230697;28;20471;-78
2021/06/14 01:41:58;;;;;;;3.42;3.13;;;13.30;82.10;;;;;;6230948;28;20077;-78
2021/06/14 01:45:02;;;;;;;3.45;2.85;;;13.20;83.20;;;;;;6229834;28;20045;-78
2021/06/14 01:48:06;;;;;;;5.72;3.33;;;13.20;83.10;;;;;;6230162;28;20580;-78
2021/06/14 01:51:10;;;;;;;6.13;4.80;;;13.10;83.30;;;;;;6230044;28;20076;-78
2021/06/14 01:54:12;;;;;;;7.03;3.90;;;13.10;83.40;;;;;;6229658;28;20054;-78
2021/06/14 01:57:14;;;;;;;5.38;3.95;;;13.10;83.70;;;;;;6229970;28;20544;-78
2021/06/14 02:00:20;;;;;;;7.38;4.30;;;13.10;84.30;;;;;;6230582;28;20056;-78
2021/06/14 02:03:23;;;;;;;6.70;5.20;;;13.10;84.50;;;;;;6230705;28;20117;-79
2021/06/14 02:06:27;;;;;;;4.95;4.45;;;13.00;84.30;;;;;;6231181;28;20132;-78
2021/06/14 02:09:30;;;;;;;4.38;3.47;;;13.00;85.00;;;;;;6229288;28;20116;-78
2021/06/14 02:12:33;;;;;;;4.88;3.50;;;13.00;85.10;;;;;;6230116;28;20061;-77
2021/06/14 02:15:37;;;;;;;6.60;4.35;;;13.00;85.50;;;;;;6229706;28;20131;-78
2021/06/14 02:18:38;;;;;;;4.03;3.63;;;13.00;85.30;;;;;;6230768;28;20093;-78
2021/06/14 02:21:41;;;;;;;3.63;3.20;;;13.00;85.30;;;;;;6229912;28;20198;-78
2021/06/14 02:24:44;;;;;;;6.90;3.70;;;13.00;85.30;;;;;;6229354;28;20074;-78
2021/06/14 02:27:46;;;;;;;4.53;3.65;;;13.00;85.80;;;;;;6229112;28;20419;-78
2021/06/14 02:30:49;;;;;;;5.55;3.60;;;13.00;85.60;;;;;;6229839;28;20133;-78
2021/06/14 02:33:51;;;;;;;3.42;3.13;;;13.00;85.30;;;;;;6230180;28;20456;-78
2021/06/14 02:36:54;;;;;;;8.48;3.80;;;13.00;85.00;;;;;;6229506;28;20096;-78
2021/06/14 02:39:58;;;;;;;5.25;3.90;;;13.00;84.90;;;;;;6229042;28;20136;-78
2021/06/14 02:43:01;;;;;;;4.60;4.20;;;13.10;84.70;;;;;;6228801;28;20081;-78
2021/06/14 02:46:06;;;;;;;5.20;3.58;;;13.10;84.10;;;;;;6229947;28;20085;-78
2021/06/14 02:49:09;;;;;;;5.82;2.95;;;13.10;84.10;;;;;;6228551;28;20135;-78
2021/06/14 02:52:12;;;;;;;8.57;4.35;;;13.10;84.00;;;;;;6229065;28;20085;-77
2021/06/14 02:55:17;;;;;;;5.55;3.55;;;13.30;84.50;;;;;;6228432;28;20062;-78
2021/06/14 02:58:25;;;;;;;4.28;2.95;;;13.30;84.40;;;;;;6229286;28;20131;-79
2021/06/14 03:01:30;;;;;;;7.55;2.83;;;13.30;83.70;;;;;;6230693;28;20042;-79
2021/06/14 03:04:34;;;;;;;4.95;3.10;;;13.30;83.40;;;;;;6229697;28;20461;-78
2021/06/14 03:07:36;;;;;;;4.10;2.95;;;13.30;83.10;;;;;;6227945;28;20104;-80
2021/06/14 03:10:38;;;;;;;5.30;3.30;;;13.30;82.90;;;;;;6229230;28;20548;-78
2021/06/14 03:13:44;;;;;;;5.72;2.90;;;13.30;82.70;;;;;;6228719;28;20599;-78
2021/06/14 03:16:48;;;;;;;6.97;2.88;;;13.40;82.70;;;;;;6228894;28;20050;-78
2021/06/14 03:19:52;;;;;;;11.15;3.40;;;13.40;83.40;;;;;;6228326;28;20076;-79
2021/06/14 03:22:55;;;;;;;5.50;3.25;;;13.50;82.80;;;;;;6229065;28;20196;-79
2021/06/14 03:25:56;;;;;;;4.15;3.50;;;13.60;82.20;;;;;;6228509;28;20135;-78
2021/06/14 03:28:59;;;;;;;7.22;3.50;;;13.60;81.90;;;;;;6228507;28;20129;-78
2021/06/14 03:32:04;;;;;;;11.20;3.75;;;13.60;81.70;;;;;;6226580;28;20125;-78
2021/06/14 03:35:07;;;;;;;6.80;4.13;;;13.70;81.70;;;;;;6226014;28;20125;-78
2021/06/14 03:38:09;;;;;;;5.45;4.20;;;13.70;81.70;;;;;;6227417;28;20054;-78
2021/06/14 03:41:11;;;;;;;3.55;3.22;;;13.80;81.30;;;;;;6225660;28;20050;-78
2021/06/14 03:44:14;;;;;;;16.98;5.88;;;13.90;80.20;;;;;;6225548;28;20050;-78
2021/06/14 03:47:17;;;;;;;10.60;3.63;;;13.90;80.60;;;;;;6224845;28;20508;-77
2021/06/14 03:50:19;;;;;;;8.10;3.40;;;14.00;80.80;;;;;;6228930;28;20144;-78
2021/06/14 03:53:27;;;;;;;5.53;2.55;;;14.20;79.40;;;;;;6230990;28;20065;-79
2021/06/14 03:56:32;;;;;;;5.28;3.22;;;14.20;78.80;;;;;;6231611;28;20041;-78
2021/06/14 03:59:34;;;;;;;6.30;3.38;;;14.20;79.00;;;;;;6238450;28;20121;-77
2021/06/14 04:02:37;;;;;;;4.95;3.55;;;14.20;79.40;;;;;;6239541;28;20053;-78
2021/06/14 04:05:39;;;;;;;3.83;3.13;;;14.20;78.70;;;;;;6228492;28;20046;-78
2021/06/14 04:08:41;;;;;;;4.75;2.85;;;14.20;78.90;;;;;;6224623;28;20046;-78
2021/06/14 04:11:42;;;;;;;4.05;2.70;;;14.20;79.20;;;;;;6224954;28;20065;-78
2021/06/14 04:14:45;;;;;;;4.78;3.38;;;14.20;79.40;;;;;;6223716;28;20623;-78
2021/06/14 04:17:48;;;;;;;5.38;2.58;;;14.20;80.50;;;;;;6224306;28;20061;-78
2021/06/14 04:20:50;;;;;;;4.07;3.15;;;14.30;79.10;;;;;;6224580;28;20069;-79
2021/06/14 04:23:52;;;;;;;4.97;3.17;;;14.30;78.90;;;;;;6228896;28;20073;-78
2021/06/14 04:26:54;;;;;;;4.88;3.45;;;14.40;79.00;;;;;;6228600;28;20085;-78
2021/06/14 04:29:55;;;;;;;5.03;3.40;;;14.50;78.60;;;;;;6229248;28;20070;-78
2021/06/14 04:32:59;;;;;;;4.93;3.05;;;14.60;79.20;;;;;;6224868;28;20110;-78
2021/06/14 04:36:02;;;;;;;4.20;3.08;;;14.70;78.10;;;;;;6222242;28;20493;-78
2021/06/14 04:39:04;;;;;;;8.35;2.83;;;15.00;77.30;;;;;;6225460;28;20053;-78
2021/06/14 04:42:07;;;;;;;3.85;3.55;;;15.10;77.20;;;;;;6228942;28;20109;-79
2021/06/14 04:45:10;;;;;;;7.95;3.10;;;15.20;76.90;;;;;;6228325;28;20046;-79
2021/06/14 04:48:13;;;;;;;3.47;2.80;;;15.40;75.50;;;;;;6228141;28;20113;-78
2021/06/14 04:51:15;;;;;;;3.90;2.58;;;15.50;74.80;;;;;;6225847;28;20176;-77
2021/06/14 04:54:17;;;;;;;4.38;2.90;;;15.70;74.90;;;;;;6227174;28;20129;-79
2021/06/14 04:57:19;;;;;;;4.90;2.85;;;15.90;74.00;;;;;;6225815;28;20062;-79
2021/06/14 05:00:22;;;;;;;4.22;3.50;;;16.00;73.20;;;;;;6226022;28;20109;-80
2021/06/14 05:03:25;;;;;;;4.65;2.90;;;16.20;72.90;;;;;;6224192;28;20121;-78
2021/06/14 05:06:27;;;;;;;6.45;2.88;;;16.30;72.50;;;;;;6224791;28;20058;-77
2021/06/14 05:09:29;;;;;;;9.48;2.83;;;16.30;72.20;;;;;;6229693;28;20578;-78
2021/06/14 05:12:30;;;;;;;5.75;2.53;;;16.40;72.30;;;;;;6229905;28;20615;-78
2021/06/14 05:15:32;;;;;;;3.90;2.58;;;16.50;71.40;;;;;;6229280;28;20124;-78
2021/06/14 05:18:35;;;;;;;10.43;4.57;;;16.70;71.40;;;;;;6230523;28;20046;-78
2021/06/14 05:21:38;;;;;;;3.15;2.85;;;16.80;70.70;;;;;;6230361;28;20049;-78
2021/06/14 05:24:40;;;;;;;5.95;3.08;;;16.90;69.80;;;;;;6230661;28;20080;-79
2021/06/14 05:27:42;;;;;;;5.78;2.88;;;17.10;69.50;;;;;;6230386;28;20448;-78
2021/06/14 05:30:44;;;;;;;4.43;3.15;;;17.30;68.70;;;;;;6230517;28;20049;-78
2021/06/14 05:33:47;;;;;;;5.22;3.53;;;17.60;68.10;;;;;;6230364;28;20042;-78
2021/06/14 05:36:49;;;;;;;4.65;3.38;;;17.70;67.80;;;;;;6226939;28;20613;-80
2021/06/14 05:39:51;;;;;;;5.00;3.20;;;17.90;67.00;;;;;;6231285;28;20042;-80
2021/06/14 05:42:52;;;;;;;3.15;2.47;;;18.10;65.80;;;;;;6230563;28;20078;-80
2021/06/14 05:45:54;;;;;;;6.32;2.75;;;18.20;67.20;;;;;;6229999;28;20140;-80
2021/06/14 05:48:57;;;;;;;2.47;2.13;;;18.50;65.20;;;;;;6230280;28;20520;-80
2021/06/14 05:52:00;;;;;;;3.58;2.30;;;18.70;64.70;;;;;;6232059;28;20054;-79
2021/06/14 05:55:02;;;;;;;5.18;3.38;;;18.80;63.50;;;;;;6229505;28;20045;-80
2021/06/14 05:58:04;;;;;;;4.30;2.92;;;18.90;63.10;;;;;;6230936;28;20132;-78
2021/06/14 06:01:06;;;;;;;3.55;2.40;;;18.90;63.70;;;;;;6228229;28;20050;-77
2021/06/14 06:04:09;;;;;;;2.70;2.00;;;19.20;62.40;;;;;;6221306;28;20101;-76
2021/06/14 06:07:11;;;;;;;7.57;4.88;;;20.00;60.00;;;;;;6225825;28;20128;-81
2021/06/14 06:10:14;;;;;;;3.72;2.50;;;21.00;57.60;;;;;;6229703;28;20131;-79
2021/06/14 06:13:16;;;;;;;4.03;2.38;;;21.60;55.20;;;;;;6229389;28;20089;-80
2021/06/14 06:16:18;;;;;;;3.00;2.08;;;22.20;54.20;;;;;;6229767;28;20050;-79
2021/06/14 06:19:21;;;;;;;5.68;3.00;;;22.40;54.10;;;;;;6229040;28;20049;-80
2021/06/14 06:22:23;;;;;;;6.00;2.58;;;22.80;53.00;;;;;;6231005;28;20185;-78
2021/06/14 06:25:27;;;;;;;6.22;3.08;;;23.10;52.10;;;;;;6228888;28;20052;-79
2021/06/14 06:28:29;;;;;;;6.40;2.80;;;23.00;51.30;;;;;;6229686;28;20081;-79
2021/06/14 06:31:31;;;;;;;3.22;2.20;;;23.20;50.40;;;;;;6229022;28;20100;-80
2021/06/14 06:34:35;;;;;;;6.53;2.55;;;23.20;50.10;;;;;;6229464;28;20139;-80
2021/06/14 06:37:37;;;;;;;4.88;2.22;;;23.40;50.40;;;;;;6230578;28;20513;-80
2021/06/14 06:40:39;;;;;;;4.20;2.35;;;23.90;49.30;;;;;;6229049;28;20050;-78
2021/06/14 06:43:40;;;;;;;8.63;2.88;;;24.10;48.90;;;;;;6228009;28;20415;-78
2021/06/14 06:46:42;;;;;;;4.30;2.53;;;24.30;48.60;;;;;;6227937;28;20046;-78
2021/06/14 06:49:46;;;;;;;5.80;2.45;;;24.30;47.70;;;;;;6224983;28;20134;-77
2021/06/14 06:52:48;;;;;;;2.75;1.80;;;24.50;48.40;;;;;;6209566;28;20053;-78
2021/06/14 06:55:50;;;;;;;10.57;4.10;;;24.60;47.80;;;;;;6200199;28;20504;-77
2021/06/14 06:58:51;;;;;;;4.75;2.83;;;24.50;47.30;;;;;;6201401;28;20077;-78
2021/06/14 07:01:53;;;;;;;3.60;2.45;;;24.00;49.00;;;;;;6204477;28;20177;-78
2021/06/14 07:04:56;;;;;;;2.00;1.80;;;23.70;49.50;;;;;;6205061;28;20133;-79
2021/06/14 07:07:58;;;;;;;2.78;2.20;;;23.50;49.50;;;;;;6205408;28;20096;-80
2021/06/14 07:11:01;;;;;;;4.43;2.60;;;;;;;;;;6205499;28;20133;-78
2021/06/14 07:14:03;;;;;;;3.85;3.38;;;23.10;49.70;;;;;;6203170;28;20049;-79
2021/06/14 07:17:05;;;;;;;5.22;2.05;;;23.00;50.60;;;;;;6208042;28;20070;-77
2021/06/14 07:20:11;;;;;;;5.60;2.10;;;22.90;51.80;;;;;;6208164;28;20078;-78
2021/06/14 07:23:13;;;;;;;5.85;2.03;;;22.90;52.00;;;;;;6210767;28;20095;-77
2021/06/14 07:26:15;;;;;;;3.47;1.90;;;23.20;51.30;;;;;;6208846;28;20060;-77
2021/06/14 07:29:17;;;;;;;8.40;2.33;;;23.00;51.20;;;;;;6204972;28;20046;-78
2021/06/14 07:32:19;;;;;;;5.38;1.98;;;22.80;51.40;;;;;;6203323;28;20133;-77
2021/06/14 07:35:22;;;;;;;3.90;2.42;;;22.90;51.00;;;;;;6206324;28;20049;-78
2021/06/14 07:38:24;;;;;;;3.88;2.25;;;22.90;50.80;;;;;;6206317;28;20050;-78
2021/06/14 07:41:26;;;;;;;3.90;2.28;;;23.00;50.10;;;;;;6204966;28;20132;-78
2021/06/14 07:44:28;;;;;;;8.32;2.35;;;23.10;50.90;;;;;;6207674;28;20050;-77
2021/06/14 07:47:30;;;;;;;3.90;2.22;;;23.10;50.40;;;;;;6208917;28;20043;-77
2021/06/14 07:50:33;;;;;;;3.75;2.28;;;23.10;50.20;;;;;;6208063;28;20071;-77
2021/06/14 07:53:35;;;;;;;4.30;3.22;;;23.20;50.20;;;;;;6200538;28;20046;-77
2021/06/14 07:56:38;;;;;;;7.30;3.40;;;23.40;50.10;;;;;;6201723;28;20576;-77
2021/06/14 07:59:40;;;;;;;5.25;2.63;;;23.50;50.10;;;;;;6201916;28;20043;-78
2021/06/14 08:02:42;;;;;;;6.90;2.20;;;23.80;50.10;;;;;;6208336;28;20141;-78
2021/06/14 08:05:45;;;;;;;5.32;2.60;;;23.80;48.50;;;;;;6208077;28;20105;-78
2021/06/14 08:08:47;;;;;;;3.88;2.15;;;23.80;49.80;;;;;;6207132;28;20142;-77
2021/06/14 08:11:49;;;;;;;7.10;2.40;;;24.10;48.80;;;;;;6203645;28;20081;-78
2021/06/14 08:14:51;;;;;;;5.80;2.05;;;24.20;48.60;;;;;;6205873;28;20057;-76
2021/06/14 08:17:57;;;;;;;3.33;1.73;;;24.40;49.50;;;;;;6224808;28;20132;-77
2021/06/14 08:21:32;;;;;;;6.65;3.03;;;24.50;48.30;;;;;;6203137;28;20133;-77
2021/06/14 08:27:52;;;;;;;8.77;2.67;;;25.10;47.90;;;;;;6209058;28;20034;-76
2021/06/14 08:30:54;;;;;;;2.63;2.40;;;25.00;46.80;;;;;;6219871;28;20051;-77
2021/06/14 08:33:56;;;;;;;4.35;2.00;;;25.10;47.00;;;;;;6199535;28;20599;-77
2021/06/14 08:37:00;;;;;;;2.50;2.03;;;25.20;46.70;;;;;;6199187;28;20182;-77
2021/06/14 08:40:02;;;;;;;2.95;2.15;;;25.40;46.10;;;;;;6200219;28;20046;-78
2021/06/14 08:43:05;;;;;;;6.82;2.92;;;25.20;45.90;;;;;;6204312;28;20135;-77
2021/06/14 08:46:07;;;;;;;3.83;2.13;;;25.10;45.70;;;;;;6203549;28;20225;-77
2021/06/14 08:49:10;;;;;;;8.75;2.20;;;24.90;45.80;;;;;;6206729;28;20133;-76
2021/06/14 08:52:14;;;;;;;4.45;1.85;;;24.80;47.10;;;;;;6202055;28;20480;-76
2021/06/14 08:55:17;;;;;;;7.00;2.33;;;24.90;46.10;;;;;;6202010;28;20129;-77
2021/06/14 08:58:19;;;;;;;7.72;2.45;;;24.90;45.90;;;;;;6203490;28;20090;-77
2021/06/14 09:01:21;;;;;;;4.63;2.22;;;25.20;46.90;;;;;;6202123;28;20053;-77
2021/06/14 09:04:23;;;;;;;5.05;2.40;;;25.70;45.80;;;;;;6200536;28;20050;-77
2021/06/14 09:07:26;;;;;;;2.90;2.60;;;26.20;45.20;;;;;;6200777;28;20049;-76
2021/06/14 09:10:30;;;;;;;2.70;1.92;;;26.20;44.00;;;;;;6202217;28;20117;-76
2021/06/14 09:13:34;;;;;;;2.95;1.67;;;26.20;44.10;;;;;;6201999;28;20082;-77
2021/06/14 09:16:35;;;;;;;9.38;2.30;;;26.20;43.00;;;;;;6202804;28;20523;-77
2021/06/14 09:19:40;;;;;;;3.53;2.58;;;25.90;44.20;;;;;;6203443;28;20082;-77
2021/06/14 09:22:43;;;;;;;2.28;2.08;;;25.70;44.10;;;;;;6203881;28;20058;-77
2021/06/14 09:25:48;;;;;;;4.03;2.20;;;25.70;42.90;;;;;;6201785;28;20073;-77
2021/06/14 09:28:50;;;;;;;4.63;2.38;;;25.80;42.50;;;;;;6201048;28;20058;-76
2021/06/14 09:31:54;;;;;;;3.70;2.08;;;26.10;43.70;;;;;;6201206;28;20038;-77
2021/06/14 09:34:55;;;;;;;7.35;2.97;;;26.60;43.60;;;;;;6202101;28;20185;-77
2021/06/14 09:38:02;;;;;;;12.10;3.67;;;26.80;42.60;;;;;;6202257;28;20085;-76
2021/06/14 09:41:10;;;;;;;5.72;2.85;;;26.70;42.40;;;;;;6200764;28;20129;-76
2021/06/14 09:44:12;;;;;;;3.65;1.88;;;26.50;42.60;;;;;;6201040;28;20126;-76
2021/06/14 09:47:16;;;;;;;6.20;2.28;;;26.40;43.50;;;;;;6201013;28;20101;-76
2021/06/14 09:50:24;;;;;;;3.58;2.40;;;26.70;43.20;;;;;;6201373;28;20055;-76
2021/06/14 09:53:34;;;;;;;5.22;2.08;;;26.80;42.90;;;;;;6199650;28;20419;-76
2021/06/14 09:56:36;;;;;;;6.00;2.55;;;26.60;42.70;;;;;;6200211;28;20524;-76
2021/06/14 09:59:40;;;;;;;4.72;2.00;;;26.70;43.20;;;;;;6200335;28;20112;-76
2021/06/14 10:02:42;;;;;;;6.55;2.65;;;27.00;42.50;;;;;;6200811;28;20523;-76
2021/06/14 10:05:46;;;;;;;3.53;2.22;;;27.30;41.40;;;;;;6200509;28;20088;-76
2021/06/14 10:08:49;;;;;;;6.10;1.63;;;27.20;42.10;;;;;;6200122;28;20058;-76
2021/06/14 10:11:51;;;;;;;6.05;1.98;;;27.00;41.80;;;;;;6200401;28;20121;-76
2021/06/14 10:14:55;;;;;;;6.47;3.40;;;27.30;42.00;;;;;;6199874;28;20050;-76
2021/06/14 10:17:57;;;;;;;4.30;2.17;;;27.90;41.00;;;;;;6200320;28;20583;-76
2021/06/14 10:20:59;;;;;;;3.45;2.10;;;28.20;40.70;;;;;;6199962;28;20046;-75
2021/06/14 10:24:06;;;;;;;4.97;2.30;;;28.20;41.10;;;;;;6199902;28;20053;-76
2021/06/14 10:27:08;;;;;;;4.30;2.50;;;28.20;41.50;;;;;;6200015;28;20042;-76
2021/06/14 10:30:13;;;;;;;2.67;1.85;;;28.20;40.40;;;;;;6200265;28;20145;-76
2021/06/14 10:33:16;;;;;;;4.90;2.30;;;28.30;41.20;;;;;;6199755;28;20046;-76
2021/06/14 10:36:22;;;;;;;9.32;2.50;;;28.60;40.60;;;;;;6199516;28;20125;-76
2021/06/14 10:39:27;;;;;;;6.32;2.42;;;28.70;39.70;;;;;;6199677;28;20129;-76
2021/06/14 10:42:29;;;;;;;3.67;2.78;;;28.50;40.00;;;;;;6200141;28;20054;-76
2021/06/14 10:45:31;;;;;;;4.97;2.67;;;28.40;39.00;;;;;;6199207;28;20488;-76
2021/06/14 10:48:35;;;;;;;3.55;1.90;;;28.30;40.20;;;;;;6199346;28;20058;-76
2021/06/14 10:51:37;;;;;;;4.03;1.90;;;28.70;39.10;;;;;;6199585;28;20086;-76
2021/06/14 10:54:42;;;;;;;10.02;2.25;;;28.70;38.90;;;;;;6199751;28;20189;-78
2021/06/14 10:57:45;;;;;;;4.03;2.70;;;28.70;37.30;;;;;;6199644;28;20125;-76
2021/06/14 11:00:58;;;;;;;3.75;2.40;;;28.50;38.40;;;;;;6198775;28;20543;-76
2021/06/14 11:04:00;;;;;;;3.70;2.22;;;28.60;38.40;;;;;;6198836;28;20451;-76
2021/06/14 11:07:03;;;;;;;6.90;2.70;;;28.80;37.50;;;;;;6198958;28;20050;-76
2021/06/14 11:10:14;;;;;;;5.45;2.33;;;28.80;37.50;;;;;;6199240;28;20089;-77
2021/06/14 11:13:17;;;;;;;2.88;2.17;;;28.90;37.90;;;;;;6198891;28;20128;-77
2021/06/14 11:16:20;;;;;;;7.10;2.75;;;29.00;37.30;;;;;;6200572;28;20077;-77
2021/06/14 11:19:33;;;;;;;6.88;2.50;;;29.30;36.80;;;;;;6200649;28;20074;-77
2021/06/14 11:22:37;;;;;;;6.93;2.10;;;29.50;36.60;;;;;;6201142;28;20102;-77
2021/06/14 11:25:44;;;;;;;4.25;2.00;;;29.70;35.50;;;;;;6200347;28;20104;-78
2021/06/14 11:28:46;;;;;;;4.03;1.75;;;29.60;36.40;;;;;;6199503;28;20053;-76
2021/06/14 11:32:06;;;;;;;3.15;2.75;;;29.80;36.50;;;;;;6199611;28;20560;-76
2021/06/14 11:35:09;;;;;;;5.75;2.20;;;30.20;35.30;;;;;;6198360;28;20192;-77
2021/06/14 11:38:19;;;;;;;5.72;1.98;;;30.30;35.70;;;;;;6199377;28;20156;-76
2021/06/14 11:41:29;;;;;;;4.18;2.47;;;30.60;35.80;;;;;;6198801;28;20061;-76
2021/06/14 11:44:32;;;;;;;2.72;1.75;;;30.80;34.80;;;;;;6199932;28;20133;-76
2021/06/14 11:47:40;;;;;;;4.05;1.77;;;30.70;34.80;;;;;;6199947;28;20124;-77
2021/06/14 11:50:42;;;;;;;3.13;1.85;;;30.60;34.50;;;;;;6199180;28;20128;-77
2021/06/14 11:53:46;;;;;;;3.75;1.67;;;30.40;33.70;;;;;;6198533;28;20129;-77
2021/06/14 11:56:59;;;;;;;4.35;3.72;;;30.40;33.50;;;;;;6198671;28;20772;-77
2021/06/14 12:00:01;;;;;;;7.72;1.98;;;30.20;34.40;;;;;;6198296;28;20046;-77
2021/06/14 12:03:16;;;;;;;5.95;2.22;;;30.30;34.60;;;;;;6197659;28;20272;-76
2021/06/14 12:06:22;;;;;;;3.75;1.90;;;31.00;34.50;;;;;;6198417;28;20420;-77
2021/06/14 12:09:26;;;;;;;5.97;1.80;;;31.30;33.30;;;;;;6200374;28;20105;-78
2021/06/14 12:12:30;;;;;;;5.63;1.77;;;31.10;34.00;;;;;;6199168;28;20444;-79
2021/06/14 12:15:32;;;;;;;3.33;1.40;;;30.80;32.80;;;;;;6200782;28;20120;-77
2021/06/14 12:18:34;;;;;;;5.05;2.15;;;30.60;33.10;;;;;;6198526;28;20503;-75
2021/06/14 12:21:38;;;;;;;8.07;1.73;;;30.60;33.40;;;;;;6197547;28;20043;-77
2021/06/14 12:24:41;;;;;;;7.18;2.17;;;30.60;33.40;;;;;;6196540;28;20042;-77
2021/06/14 12:27:44;;;;;;;2.67;1.88;;;30.60;32.70;;;;;;6198575;28;20046;-76
2021/06/14 12:30:47;;;;;;;6.75;1.83;;;30.40;33.40;;;;;;6197289;28;20097;-76
2021/06/14 12:33:49;;;;;;;6.22;2.08;;;30.90;33.90;;;;;;6198293;28;20139;-76
2021/06/14 12:36:58;;;;;;;1.90;1.60;;;30.70;32.10;;;;;;6197258;28;20193;-77
2021/06/14 12:40:02;;;;;;;1.92;1.50;;;30.30;33.20;;;;;;6200037;28;20054;-78
2021/06/14 12:43:09;;;;;;;3.80;2.20;;;30.40;32.60;;;;;;6202169;28;20493;-77
2021/06/14 12:46:11;;;;;;;2.90;2.03;;;30.40;32.40;;;;;;6199375;28;20061;-76
2021/06/14 12:49:13;;;;;;;2.53;1.60;;;30.40;32.40;;;;;;6193927;28;20090;-76
2021/06/14 12:52:17;;;;;;;3.13;2.05;;;30.30;32.50;;;;;;6194462;28;20086;-76
2021/06/14 12:55:21;;;;;;;4.90;1.33;;;30.60;32.30;;;;;;6196879;28;20049;-76
2021/06/14 12:58:27;;;;;;;5.63;2.40;;;30.70;32.00;;;;;;6198113;28;20108;-77
2021/06/14 13:01:35;;;;;;;4.43;1.80;;;30.90;33.00;;;;;;6196950;28;20133;-77
2021/06/14 13:04:37;;;;;;;10.02;1.90;;;31.30;31.70;;;;;;6196947;28;20682;-77
2021/06/14 13:07:39;;;;;;;2.50;1.55;;;31.00;31.50;;;;;;6196790;28;20106;-77
2021/06/14 13:10:43;;;;;;;2.80;1.63;;;31.00;32.60;;;;;;6196994;28;20382;-77
2021/06/14 13:13:48;;;;;;;3.15;1.92;;;30.80;32.20;;;;;;6196883;28;20180;-77
2021/06/14 13:16:51;;;;;;;2.60;1.60;;;30.80;32.40;;;;;;6196407;28;20076;-77
2021/06/14 13:19:52;;;;;;;4.22;1.80;;;31.00;33.10;;;;;;6196652;28;20140;-76
2021/06/14 13:22:54;;;;;;;19.38;2.08;;;31.40;32.10;;;;;;6198496;28;20141;-77
2021/06/14 13:25:58;;;;;;;8.65;1.85;;;31.40;32.00;;;;;;6197455;28;20106;-77
2021/06/14 13:29:11;;;;;;;4.45;1.52;;;31.20;31.90;;;;;;6200578;28;20504;-76
2021/06/14 13:32:21;;;;;;;11.45;2.92;;;31.00;31.40;;;;;;6201819;28;20085;-76
2021/06/14 13:35:24;;;;;;;2.85;2.13;;;30.90;32.50;;;;;;6201298;28;20057;-76
2021/06/14 13:38:27;;;;;;;1.90;1.40;;;31.30;32.10;;;;;;6203738;28;20571;-77
2021/06/14 13:41:29;;;;;;;2.95;1.73;;;31.50;32.30;;;;;;6200970;28;20058;-77
2021/06/14 13:44:33;;;;;;;3.95;2.58;;;31.40;31.50;;;;;;6200329;28;20582;-77
2021/06/14 13:47:35;;;;;;;2.08;1.27;;;31.30;31.60;;;;;;6200671;28;20058;-77
2021/06/14 13:50:39;;;;;;;2.67;1.77;;;31.10;31.00;;;;;;6188754;28;20082;-77
2021/06/14 13:53:49;;;;;;;6.22;1.77;;;31.30;31.70;;;;;;6199979;28;20133;-77
2021/06/14 13:56:51;;;;;;;6.70;1.65;;;31.10;31.20;;;;;;6200128;28;20042;-77
2021/06/14 14:00:08;;;;;;;4.53;1.63;;;31.10;32.70;;;;;;6199907;28;20078;-77
2021/06/14 14:03:10;;;;;;;;;;;31.40;32.10;;;;;;6200575;28;20138;-77
2021/06/14 14:06:12;;;;;;;3.90;1.60;;;31.30;31.40;;;;;;6200237;28;19926;-77
2021/06/14 14:09:14;;;;;;;4.35;1.92;;;31.10;32.00;;;;;;6199849;28;20232;-77
2021/06/14 14:12:16;;;;;;;3.95;1.88;;;31.30;32.30;;;;;;6199850;28;20121;-77
2021/06/14 14:15:20;;;;;;;1.52;1.10;;;31.20;30.90;;;;;;6200209;28;20042;-77
2021/06/14 14:18:23;;;;;;;5.35;1.45;;;30.90;31.60;;;;;;6200459;28;20058;-77
2021/06/14 14:21:25;;;;;;;3.22;1.88;;;30.90;32.10;;;;;;6199697;28;20501;-77
2021/06/14 14:24:27;;;;;;;3.65;1.90;;;31.30;32.30;;;;;;6199534;28;20406;-78
2021/06/14 14:27:29;;;;;;;2.90;1.58;;;31.60;31.20;;;;;;6199822;28;20050;-77
2021/06/14 14:30:37;;;;;;;3.10;1.77;;;31.70;31.40;;;;;;6199789;28;20145;-77
2021/06/14 14:33:39;;;;;;;2.47;1.30;;;31.60;31.40;;;;;;6199456;28;20047;-76
2021/06/14 14:36:46;;;;;;;4.50;1.52;;;31.60;32.40;;;;;;6199197;28;20097;-76
2021/06/14 14:39:48;;;;;;;7.10;2.80;;;31.60;32.40;;;;;;6198647;28;20124;-77
2021/06/14 14:42:51;;;;;;;2.88;1.60;;;31.60;33.40;;;;;;6199457;28;20090;-77
2021/06/14 14:45:54;;;;;;;4.35;1.75;;;32.00;32.30;;;;;;6199387;28;20050;-77
2021/06/14 14:48:58;;;;;;;2.38;1.50;;;32.10;32.10;;;;;;6199221;28;20120;-77
2021/06/14 14:52:01;;;;;;;2.88;1.45;;;32.20;31.70;;;;;;6183846;28;20131;-77
2021/06/14 14:55:06;;;;;;;1.98;1.45;;;32.10;32.10;;;;;;6201070;28;20054;-77
2021/06/14 14:58:08;;;;;;;2.83;1.63;;;31.90;32.50;;;;;;6223595;28;20053;-77
2021/06/14 15:01:11;;;;;;;1.75;1.30;;;31.90;33.10;;;;;;6203219;28;20197;-77
2021/06/14 15:04:13;;;;;;;1.48;1.02;;;31.90;33.20;;;;;;6198785;28;20443;-78
2021/06/14 15:07:16;;;;;;;3.17;2.20;;;31.60;33.70;;;;;;6198702;28;20128;-77
2021/06/14 15:10:19;;;;;;;5.18;1.92;;;31.60;33.70;;;;;;6198853;28;20408;-77
2021/06/14 15:13:21;;;;;;;3.90;2.78;;;31.80;33.20;;;;;;6199376;28;20582;-77
2021/06/14 15:16:24;;;;;;;3.90;1.65;;;32.00;33.40;;;;;;6199057;28;20168;-76
2021/06/14 15:19:26;;;;;;;4.07;1.92;;;31.90;33.60;;;;;;6198264;28;20186;-78
2021/06/14 15:22:29;;;;;;;2.13;1.70;;;31.90;33.50;;;;;;6199277;28;20397;-77
2021/06/14 15:25:33;;;;;;;3.60;1.73;;;32.10;33.60;;;;;;6198207;28;20567;-77
2021/06/14 15:28:35;;;;;;;4.45;2.00;;;32.10;33.80;;;;;;6198398;28;20073;-77
2021/06/14 15:31:39;;;;;;;2.67;1.48;;;32.00;33.50;;;;;;6198325;28;20112;-77
2021/06/14 15:34:41;;;;;;;2.70;1.60;;;31.80;33.60;;;;;;6199188;28;20056;-77
2021/06/14 15:37:43;;;;;;;4.57;2.08;;;31.80;33.40;;;;;;6198312;28;20073;-77
2021/06/14 15:40:44;;;;;;;8.65;2.42;;;31.90;33.20;;;;;;6197685;28;20185;-77
2021/06/14 15:43:46;;;;;;;3.88;2.40;;;31.60;34.00;;;;;;6198341;28;20126;-77
2021/06/14 15:46:49;;;;;;;2.40;1.52;;;31.30;34.60;;;;;;6198276;28;20124;-77
2021/06/14 15:49:51;;;;;;;5.28;1.75;;;31.00;35.10;;;;;;6197423;28;20085;-77
2021/06/14 15:52:53;;;;;;;4.32;2.17;;;31.00;34.50;;;;;;6182516;28;20178;-77
2021/06/14 15:55:55;;;;;;;3.03;2.53;;;31.20;34.20;;;;;;6183197;28;20579;-76
2021/06/14 15:58:57;;;;;;;5.57;2.40;;;31.30;33.70;;;;;;6195372;28;20085;-77